createdAt,value
2017-08-24T00:01:18.576Z,58.20
2017-08-24T00:03:19.578Z,58.30
2017-08-24T00:05:20.512Z,58.30
2017-08-24T00:07:21.449Z,57.90
2017-08-24T00:09:22.384Z,58.40
2017-08-24T00:11:23.320Z,58.00
2017-08-24T00:13:24.252Z,57.50
2017-08-24T00:15:25.189Z,58.20
2017-08-24T00:17:26.153Z,58.10
2017-08-24T00:19:27.105Z,58.00
2017-08-24T00:21:28.048Z,59.60
2017-08-24T00:23:28.987Z,58.60
2017-08-24T00:25:29.920Z,58.00
2017-08-24T00:27:30.892Z,58.70
2017-08-24T00:29:31.830Z,58.10
2017-08-24T00:31:32.773Z,59.10
2017-08-24T00:33:33.740Z,58.20
2017-08-24T00:35:34.941Z,57.10
2017-08-24T00:37:35.888Z,57.60
2017-08-24T00:39:36.821Z,57.10
2017-08-24T00:41:37.764Z,57.20
2017-08-24T00:43:38.693Z,57.50
2017-08-24T00:45:39.632Z,57.00
2017-08-24T00:47:40.574Z,57.30
2017-08-24T00:49:41.516Z,57.00
2017-08-24T00:51:42.466Z,56.90
2017-08-24T00:53:43.392Z,56.90
2017-08-24T00:55:44.345Z,56.70
2017-08-24T00:57:45.306Z,56.60
2017-08-24T00:59:46.243Z,57.40
2017-08-24T01:01:47.202Z,56.40
2017-08-24T01:03:48.137Z,57.00
2017-08-24T01:05:49.060Z,57.40
2017-08-24T01:07:50.052Z,56.10
2017-08-24T01:09:50.992Z,56.40
2017-08-24T01:11:51.956Z,55.70
2017-08-24T01:13:52.907Z,55.80
2017-08-24T01:15:54.585Z,57.20
2017-08-24T01:17:55.531Z,56.30
2017-08-24T01:19:56.463Z,55.70
2017-08-24T01:21:57.409Z,56.20
2017-08-24T01:23:58.537Z,56.10
2017-08-24T01:25:59.497Z,55.30
2017-08-24T01:28:00.460Z,56.10
2017-08-24T01:30:01.400Z,55.50
2017-08-24T01:32:02.336Z,55.40
2017-08-24T01:34:03.280Z,56.70
2017-08-24T01:36:04.216Z,55.30
2017-08-24T01:38:05.175Z,55.30
2017-08-24T01:40:06.117Z,56.00
2017-08-24T01:42:07.069Z,54.90
2017-08-24T01:44:08.029Z,56.00
2017-08-24T01:46:08.996Z,55.20
2017-08-24T01:48:09.929Z,55.20
2017-08-24T01:50:10.883Z,55.00
2017-08-24T01:52:11.814Z,54.90
2017-08-24T01:54:12.764Z,54.90
2017-08-24T01:56:13.793Z,54.90
2017-08-24T01:58:14.726Z,54.70
2017-08-24T02:00:15.676Z,54.90
2017-08-24T02:02:16.604Z,55.80
2017-08-24T02:04:17.552Z,55.10
2017-08-24T02:06:18.501Z,55.10
2017-08-24T02:08:19.445Z,54.80
2017-08-24T02:10:20.404Z,54.80
2017-08-24T02:12:21.361Z,55.00
2017-08-24T02:14:22.321Z,54.80
2017-08-24T02:16:23.260Z,54.80
2017-08-24T02:18:24.204Z,54.80
2017-08-24T02:20:25.140Z,55.30
2017-08-24T02:22:26.082Z,54.80
2017-08-24T02:24:27.016Z,55.20
2017-08-24T02:26:27.954Z,55.80
2017-08-24T02:28:28.924Z,54.80
2017-08-24T02:30:29.869Z,55.50
2017-08-24T02:32:30.817Z,55.10
2017-08-24T02:34:31.784Z,55.60
2017-08-24T02:36:32.713Z,55.10
2017-08-24T02:38:33.649Z,55.80
2017-08-24T02:40:34.608Z,54.80
2017-08-24T02:42:35.540Z,55.30
2017-08-24T02:44:36.504Z,55.80
2017-08-24T02:46:37.447Z,54.80
2017-08-24T02:48:38.385Z,55.60
2017-08-24T02:50:39.320Z,56.40
2017-08-24T02:52:40.252Z,56.10
2017-08-24T02:54:41.206Z,55.70
2017-08-24T02:56:42.145Z,56.00
2017-08-24T02:58:43.101Z,56.00
2017-08-24T03:00:44.034Z,56.50
2017-08-24T03:02:44.980Z,56.10
2017-08-24T03:04:45.929Z,55.80
2017-08-24T03:06:46.860Z,55.80
2017-08-24T03:08:47.858Z,56.90
2017-08-24T03:10:48.793Z,56.10
2017-08-24T03:12:49.736Z,56.90
2017-08-24T03:14:50.672Z,56.00
2017-08-24T03:16:51.608Z,56.20
2017-08-24T03:18:52.560Z,56.00
2017-08-24T03:20:53.489Z,56.80
2017-08-24T03:22:54.420Z,56.50
2017-08-24T03:24:55.376Z,56.70
2017-08-24T03:26:56.313Z,57.10
2017-08-24T03:28:57.260Z,56.10
2017-08-24T03:30:58.197Z,56.80
2017-08-24T03:32:59.152Z,56.80
2017-08-24T03:35:00.151Z,57.40
2017-08-24T03:37:01.095Z,58.20
2017-08-24T03:39:02.044Z,58.30
2017-08-24T03:41:02.987Z,58.40
2017-08-24T03:43:03.924Z,59.00
2017-08-24T03:45:04.889Z,59.70
2017-08-24T03:47:05.836Z,59.20
2017-08-24T03:49:06.815Z,62.60
2017-08-24T03:51:07.760Z,66.60
2017-08-24T03:53:08.697Z,65.70
2017-08-24T03:55:09.665Z,67.60
2017-08-24T03:57:10.607Z,69.70
2017-08-24T03:59:12.933Z,70.20
2017-08-24T04:01:13.884Z,69.30
2017-08-24T04:03:14.821Z,69.30
2017-08-24T04:05:15.768Z,70.30
2017-08-24T04:07:16.719Z,71.20
2017-08-24T04:09:17.665Z,70.80
2017-08-24T04:11:18.613Z,72.30
2017-08-24T04:13:19.544Z,73.20
2017-08-24T04:15:20.604Z,72.90
2017-08-24T04:17:21.540Z,73.50
2017-08-24T04:19:22.514Z,72.80
2017-08-24T04:21:23.469Z,71.40
2017-08-24T04:23:24.405Z,74.90
2017-08-24T04:25:26.089Z,74.10
2017-08-24T04:27:27.041Z,74.00
2017-08-24T04:29:27.984Z,73.30
2017-08-24T04:31:28.920Z,73.60
2017-08-24T04:33:29.856Z,74.30
2017-08-24T04:35:30.807Z,74.00
2017-08-24T04:37:31.745Z,74.00
2017-08-24T04:39:32.704Z,74.00
2017-08-24T04:41:33.644Z,74.00
2017-08-24T04:43:34.596Z,74.20
2017-08-24T04:45:35.541Z,74.40
2017-08-24T04:47:36.494Z,76.30
2017-08-24T04:49:37.454Z,76.50
2017-08-24T04:51:38.402Z,76.50
2017-08-24T04:53:39.349Z,75.80
2017-08-24T04:55:40.298Z,76.20
2017-08-24T04:57:41.275Z,76.60
2017-08-24T04:59:42.213Z,75.40
2017-08-24T05:01:43.150Z,76.50
2017-08-24T05:03:44.096Z,75.50
2017-08-24T05:05:45.270Z,75.60
2017-08-24T05:07:46.209Z,75.00
2017-08-24T05:09:47.139Z,75.40
2017-08-24T05:11:48.084Z,76.50
2017-08-24T05:13:49.029Z,76.00
2017-08-24T05:15:49.980Z,76.10
2017-08-24T05:17:50.937Z,75.60
2017-08-24T05:19:51.875Z,76.20
2017-08-24T05:21:52.821Z,76.30
2017-08-24T05:23:53.771Z,76.20
2017-08-24T05:25:54.760Z,77.20
2017-08-24T05:27:55.718Z,77.30
2017-08-24T05:29:56.656Z,77.30
2017-08-24T05:31:57.620Z,77.30
2017-08-24T05:33:58.572Z,77.70
2017-08-24T05:35:59.528Z,76.30
2017-08-24T05:38:00.719Z,77.10
2017-08-24T05:40:01.672Z,76.90
2017-08-24T05:42:02.637Z,77.70
2017-08-24T05:44:03.630Z,77.70
2017-08-24T05:46:04.623Z,76.80
2017-08-24T05:48:05.589Z,78.50
2017-08-24T05:50:06.561Z,78.50
2017-08-24T05:52:07.512Z,78.70
2017-08-24T05:54:08.520Z,78.60
2017-08-24T05:56:09.530Z,79.20
2017-08-24T05:58:10.492Z,80.70
2017-08-24T06:00:11.467Z,81.50
2017-08-24T06:02:12.424Z,82.20
2017-08-24T06:04:13.373Z,82.70
2017-08-24T06:06:14.325Z,84.20
2017-08-24T06:08:15.304Z,83.70
2017-08-24T06:10:16.248Z,83.40
2017-08-24T06:12:17.233Z,83.90
2017-08-24T06:14:18.183Z,83.70
2017-08-24T06:16:19.116Z,84.50
2017-08-24T06:18:20.068Z,84.60
2017-08-24T06:20:21.026Z,84.60
2017-08-24T06:22:21.981Z,84.60
2017-08-24T06:24:22.940Z,84.60
2017-08-24T06:26:24.151Z,84.60
2017-08-24T06:28:25.108Z,84.60
2017-08-24T06:30:26.052Z,84.80
2017-08-24T06:32:27.010Z,84.70
2017-08-24T06:34:27.981Z,84.70
2017-08-24T06:36:28.933Z,85.00
2017-08-24T06:38:29.909Z,84.90
2017-08-24T06:40:30.847Z,85.00
2017-08-24T06:42:31.841Z,84.90
2017-08-24T06:44:32.792Z,85.20
2017-08-24T06:46:33.741Z,85.10
2017-08-24T06:48:34.692Z,85.10
2017-08-24T06:50:35.656Z,84.00
2017-08-24T06:52:36.592Z,84.10
2017-08-24T06:54:37.556Z,85.30
2017-08-24T06:56:38.509Z,85.40
2017-08-24T06:58:39.456Z,84.60
2017-08-24T07:00:40.396Z,84.00
2017-08-24T07:02:41.345Z,84.50
2017-08-24T07:04:42.321Z,83.90
2017-08-24T07:06:43.268Z,84.30
2017-08-24T07:08:44.215Z,83.30
2017-08-24T07:10:45.165Z,82.40
2017-08-24T07:12:46.113Z,84.40
2017-08-24T07:14:47.061Z,84.00
2017-08-24T07:16:48.027Z,83.80
2017-08-24T07:18:48.972Z,83.50
2017-08-24T07:20:49.923Z,83.90
2017-08-24T07:22:50.885Z,83.90
2017-08-24T07:24:51.840Z,83.70
2017-08-24T07:26:52.936Z,83.80
2017-08-24T07:28:53.877Z,83.20
2017-08-24T07:30:54.829Z,83.50
2017-08-24T07:32:55.781Z,82.70
2017-08-24T07:34:56.741Z,83.20
2017-08-24T07:36:57.685Z,83.50
2017-08-24T07:38:58.620Z,83.20
2017-08-24T07:40:59.568Z,84.00
2017-08-24T07:43:00.516Z,84.40
2017-08-24T07:45:01.468Z,82.80
2017-08-24T07:47:02.421Z,81.70
2017-08-24T07:49:03.366Z,83.10
2017-08-24T07:51:04.305Z,83.00
2017-08-24T07:53:05.246Z,82.00
2017-08-24T07:55:06.194Z,82.20
2017-08-24T07:57:07.213Z,82.90
2017-08-24T07:59:08.148Z,82.60
2017-08-24T08:01:09.084Z,80.30
2017-08-24T08:03:10.020Z,80.30
2017-08-24T08:05:10.973Z,79.80
2017-08-24T08:07:11.948Z,79.30
2017-08-24T08:09:12.900Z,79.50
2017-08-24T08:11:13.842Z,79.60
2017-08-24T08:13:14.779Z,78.70
2017-08-24T08:15:15.722Z,77.30
2017-08-24T08:17:16.661Z,78.10
2017-08-24T08:19:17.592Z,78.10
2017-08-24T08:21:18.540Z,77.40
2017-08-24T08:23:19.485Z,77.30
2017-08-24T08:25:20.449Z,76.60
2017-08-24T08:27:21.421Z,75.10
2017-08-24T08:29:22.356Z,74.40
2017-08-24T08:31:23.296Z,75.30
2017-08-24T08:33:24.238Z,74.10
2017-08-24T08:35:25.181Z,75.40
2017-08-24T08:37:26.129Z,75.10
2017-08-24T08:39:27.069Z,76.10
2017-08-24T08:41:28.005Z,73.30
2017-08-24T08:43:28.948Z,72.90
2017-08-24T08:45:29.891Z,71.30
2017-08-24T08:47:30.836Z,71.40
2017-08-24T08:49:31.785Z,68.30
2017-08-24T08:51:32.720Z,68.90
2017-08-24T08:53:33.677Z,67.10
2017-08-24T08:55:34.624Z,66.70
2017-08-24T08:57:35.573Z,68.20
2017-08-24T08:59:36.513Z,67.40
2017-08-24T09:01:37.461Z,66.20
2017-08-24T09:03:38.404Z,67.80
2017-08-24T09:05:39.345Z,68.30
2017-08-24T09:07:40.309Z,68.70
2017-08-24T09:09:41.273Z,66.10
2017-08-24T09:11:42.216Z,66.50
2017-08-24T09:13:43.148Z,66.00
2017-08-24T09:15:44.077Z,66.50
2017-08-24T09:17:45.013Z,64.00
2017-08-24T09:19:45.950Z,62.00
2017-08-24T09:21:46.893Z,63.80
2017-08-24T09:23:47.828Z,63.50
2017-08-24T09:25:48.800Z,63.60
2017-08-24T09:27:49.752Z,61.30
2017-08-24T09:29:51.686Z,59.90
2017-08-24T09:31:52.617Z,59.30
2017-08-24T09:33:53.548Z,57.80
2017-08-24T09:35:54.493Z,58.70
2017-08-24T09:37:55.601Z,58.20
2017-08-24T09:39:56.536Z,58.70
2017-08-24T09:41:57.486Z,58.50
2017-08-24T09:43:58.422Z,59.90
2017-08-24T09:45:59.348Z,61.20
2017-08-24T09:48:00.273Z,60.50
2017-08-24T09:50:01.212Z,60.60
2017-08-24T09:52:02.305Z,62.40
2017-08-24T09:54:03.274Z,61.50
2017-08-24T09:56:04.246Z,64.30
2017-08-24T09:58:05.235Z,62.90
2017-08-24T10:00:07.092Z,63.00
2017-08-24T10:02:08.039Z,59.60
2017-08-24T10:04:08.979Z,59.30
2017-08-24T10:06:09.925Z,60.90
2017-08-24T10:08:10.909Z,60.70
2017-08-24T10:10:11.856Z,61.10
2017-08-24T10:12:12.804Z,63.10
2017-08-24T10:14:13.812Z,60.90
2017-08-24T10:16:14.797Z,58.50
2017-08-24T10:18:15.821Z,59.90
2017-08-24T10:20:16.768Z,59.20
2017-08-24T10:22:17.740Z,58.30
2017-08-24T10:24:19.369Z,58.80
2017-08-24T10:26:20.312Z,58.20
2017-08-24T10:28:21.342Z,57.60
2017-08-24T10:30:29.475Z,57.90
2017-08-24T10:32:30.361Z,58.60
2017-08-24T10:34:31.294Z,61.10
2017-08-24T10:36:32.238Z,61.40
2017-08-24T10:38:33.165Z,60.40
2017-08-24T10:40:34.128Z,59.60
2017-08-24T10:42:35.065Z,59.20
2017-08-24T10:44:35.997Z,56.40
2017-08-24T10:46:36.950Z,56.60
2017-08-24T10:48:37.885Z,54.60
2017-08-24T10:50:38.807Z,54.60
2017-08-24T10:52:39.749Z,51.50
2017-08-24T10:54:40.686Z,51.90
2017-08-24T10:56:41.629Z,51.20
2017-08-24T10:58:42.564Z,52.10
2017-08-24T11:00:43.513Z,50.80
2017-08-24T11:02:44.617Z,51.10
2017-08-24T11:04:45.565Z,50.80
2017-08-24T11:06:46.504Z,51.40
2017-08-24T11:08:47.816Z,52.30
2017-08-24T11:10:48.744Z,52.10
2017-08-24T11:12:49.681Z,51.70
2017-08-24T11:14:50.631Z,53.40
2017-08-24T11:16:51.603Z,54.70
2017-08-24T11:18:52.532Z,55.70
2017-08-24T11:20:54.588Z,56.80
2017-08-24T11:22:55.529Z,56.50
2017-08-24T11:24:56.458Z,56.70
2017-08-24T11:26:57.392Z,56.70
2017-08-24T11:28:58.340Z,57.30
2017-08-24T11:30:59.278Z,55.80
2017-08-24T11:33:00.232Z,56.40
2017-08-24T11:35:01.173Z,55.50
2017-08-24T11:37:02.109Z,53.60
2017-08-24T11:39:03.073Z,53.60
2017-08-24T11:41:04.001Z,53.30
2017-08-24T11:43:05.050Z,56.70
2017-08-24T11:45:06.000Z,55.50
2017-08-24T11:47:06.973Z,55.20
2017-08-24T11:49:07.936Z,56.70
2017-08-24T11:51:09.077Z,57.30
2017-08-24T11:53:10.112Z,57.50
2017-08-24T11:55:11.808Z,58.40
2017-08-24T11:57:12.858Z,56.90
2017-08-24T11:59:13.820Z,57.80
2017-08-24T12:01:14.771Z,58.40
2017-08-24T12:03:15.753Z,58.80
2017-08-24T12:05:16.717Z,58.20
2017-08-24T12:07:17.835Z,57.60
2017-08-24T12:09:18.892Z,56.80
2017-08-24T12:11:19.833Z,53.00
2017-08-24T12:13:20.764Z,51.00
2017-08-24T12:15:21.729Z,50.20
2017-08-24T12:17:22.673Z,51.00
2017-08-24T12:19:23.629Z,51.50
2017-08-24T12:21:24.562Z,53.10
2017-08-24T12:23:25.508Z,54.50
2017-08-24T12:25:26.689Z,54.40
2017-08-24T12:27:27.625Z,56.80
2017-08-24T12:29:28.584Z,55.80
2017-08-24T12:31:29.567Z,56.70
2017-08-24T12:33:30.564Z,56.80
2017-08-24T12:35:31.500Z,56.40
2017-08-24T12:37:32.436Z,56.00
2017-08-24T12:39:33.400Z,55.90
2017-08-24T12:41:34.713Z,58.10
2017-08-24T12:43:35.657Z,58.00
2017-08-24T12:45:36.609Z,58.40
2017-08-24T12:47:37.583Z,58.90
2017-08-24T12:49:38.516Z,58.50
2017-08-24T12:51:39.515Z,59.00
2017-08-24T12:53:40.481Z,59.20
2017-08-24T12:55:41.696Z,59.10
2017-08-24T12:57:42.712Z,59.00
2017-08-24T12:59:43.790Z,59.00
2017-08-24T13:01:44.780Z,61.00
2017-08-24T13:03:45.777Z,60.90
2017-08-24T13:05:46.738Z,59.90
2017-08-24T13:07:47.772Z,60.50
2017-08-24T13:09:48.789Z,60.70
2017-08-24T13:11:49.837Z,59.40
2017-08-24T13:13:50.821Z,60.50
2017-08-24T13:15:51.921Z,59.10
2017-08-24T13:17:52.876Z,58.40
2017-08-24T13:19:53.818Z,57.70
2017-08-24T13:21:54.773Z,56.70
2017-08-24T13:23:55.714Z,56.20
2017-08-24T13:25:57.046Z,56.20
2017-08-24T13:27:57.997Z,55.20
2017-08-24T13:29:59.399Z,54.00
2017-08-24T13:32:00.396Z,53.70
2017-08-24T13:34:01.440Z,55.20
2017-08-24T13:36:02.409Z,54.30
2017-08-24T13:38:03.356Z,54.10
2017-08-24T13:40:04.303Z,52.70
2017-08-24T13:42:05.274Z,53.40
2017-08-24T13:44:06.221Z,52.90
2017-08-24T13:46:07.171Z,52.20
2017-08-24T13:48:08.132Z,51.20
2017-08-24T13:50:09.069Z,52.90
2017-08-24T13:52:10.042Z,53.50
2017-08-24T13:54:10.992Z,52.30
2017-08-24T13:56:11.960Z,52.80
2017-08-24T13:58:12.909Z,52.30
2017-08-24T14:00:13.870Z,53.30
2017-08-24T14:02:14.871Z,52.00
2017-08-24T14:04:15.941Z,53.00
2017-08-24T14:06:16.978Z,53.20
2017-08-24T14:08:18.183Z,55.20
2017-08-24T14:10:19.139Z,53.30
2017-08-24T14:12:20.118Z,54.30
2017-08-24T14:14:21.089Z,54.40
2017-08-24T14:16:22.118Z,54.10
2017-08-24T14:18:23.121Z,55.50
2017-08-24T14:20:24.120Z,55.00
2017-08-24T14:22:25.092Z,56.00
2017-08-24T14:24:26.229Z,55.60
2017-08-24T14:26:27.244Z,55.30
2017-08-24T14:28:28.244Z,55.80
2017-08-24T14:30:29.273Z,56.00
2017-08-24T14:32:30.276Z,55.40
2017-08-24T14:34:31.232Z,55.10
2017-08-24T14:36:32.172Z,54.60
2017-08-24T14:38:33.118Z,56.30
2017-08-24T14:40:34.112Z,55.90
2017-08-24T14:42:35.172Z,52.90
2017-08-24T14:44:36.185Z,52.50
2017-08-24T14:46:37.594Z,52.00
2017-08-24T14:48:38.593Z,52.40
2017-08-24T14:50:39.528Z,50.40
2017-08-24T14:52:40.969Z,50.10
2017-08-24T14:54:42.856Z,51.50
2017-08-24T14:56:43.908Z,51.40
2017-08-24T14:58:44.977Z,51.60
2017-08-24T15:00:46.004Z,52.20
2017-08-24T15:02:47.852Z,52.50
2017-08-24T15:04:49.422Z,53.30
2017-08-24T15:06:50.432Z,51.60
2017-08-24T15:08:51.485Z,51.20
2017-08-24T15:10:52.539Z,51.40
2017-08-24T15:12:53.601Z,51.60
2017-08-24T15:14:54.904Z,52.40
2017-08-24T15:16:55.922Z,52.20
2017-08-24T15:18:56.928Z,52.90
2017-08-24T15:20:57.950Z,52.70
2017-08-24T15:23:00.966Z,52.90
2017-08-24T15:25:02.560Z,53.10
2017-08-24T15:27:03.582Z,53.60
2017-08-24T15:29:04.619Z,55.60
2017-08-24T15:31:05.658Z,54.90
2017-08-24T15:33:06.649Z,55.10
2017-08-24T15:35:07.636Z,54.90
2017-08-24T15:37:08.877Z,53.20
2017-08-24T15:39:09.861Z,53.90
2017-08-24T15:41:12.725Z,52.90
2017-08-24T15:43:13.684Z,52.80
2017-08-24T15:45:14.644Z,53.50
2017-08-24T15:47:15.600Z,53.50
2017-08-24T15:49:16.536Z,52.50
2017-08-24T15:51:17.495Z,53.00
2017-08-24T15:53:18.896Z,52.70
2017-08-24T15:55:20.673Z,53.40
2017-08-24T15:57:21.609Z,52.90
2017-08-24T15:59:22.560Z,52.40
2017-08-24T16:01:24.369Z,51.10
2017-08-24T16:03:25.331Z,52.10
2017-08-24T16:05:26.486Z,52.90
2017-08-24T16:07:27.473Z,53.90
2017-08-24T16:09:28.429Z,54.00
2017-08-24T16:11:29.497Z,52.70
2017-08-24T16:13:30.440Z,53.20
2017-08-24T16:15:31.474Z,53.40
2017-08-24T16:17:32.420Z,54.00
2017-08-24T16:19:33.377Z,54.70
2017-08-24T16:21:34.336Z,54.30
2017-08-24T16:23:35.353Z,55.80
2017-08-24T16:25:36.330Z,55.00
2017-08-24T16:27:37.405Z,55.30
2017-08-24T16:29:38.361Z,55.20
2017-08-24T16:31:39.353Z,55.20
2017-08-24T16:33:40.315Z,56.20
2017-08-24T16:35:41.424Z,55.90
2017-08-24T16:37:42.527Z,55.10
2017-08-24T16:39:43.582Z,56.20
2017-08-24T16:41:44.837Z,55.00
2017-08-24T16:43:45.795Z,56.10
2017-08-24T16:45:47.508Z,55.80
2017-08-24T16:47:48.698Z,56.00
2017-08-24T16:49:49.744Z,56.30
2017-08-24T16:51:50.677Z,56.80
2017-08-24T16:53:51.607Z,56.20
2017-08-24T16:55:53.643Z,56.50
2017-08-24T16:57:54.575Z,57.10
2017-08-24T16:59:55.516Z,56.80
2017-08-24T17:01:56.457Z,57.20
2017-08-24T17:03:57.393Z,57.30
2017-08-24T17:05:58.460Z,57.80
2017-08-24T17:07:59.473Z,58.50
2017-08-24T17:10:00.532Z,58.60
2017-08-24T17:12:01.569Z,58.90
2017-08-24T17:14:02.500Z,59.50
2017-08-24T17:16:03.429Z,59.20
2017-08-24T17:18:04.373Z,59.40
2017-08-24T17:20:05.312Z,59.90
2017-08-24T17:22:06.240Z,59.60
2017-08-24T17:24:07.180Z,59.50
2017-08-24T17:26:08.115Z,60.00
2017-08-24T17:28:09.972Z,60.40
2017-08-24T17:30:12.060Z,60.40
2017-08-24T17:32:13.049Z,61.10
2017-08-24T17:34:14.073Z,61.80
2017-08-24T17:36:15.045Z,61.40
2017-08-24T17:38:16.052Z,61.80
2017-08-24T17:40:17.108Z,62.00
2017-08-24T17:42:18.172Z,62.40
2017-08-24T17:44:19.107Z,61.60
2017-08-24T17:46:20.148Z,62.10
2017-08-24T17:48:21.081Z,62.80
2017-08-24T17:50:22.104Z,62.20
2017-08-24T17:52:23.128Z,62.50
2017-08-24T17:54:24.472Z,63.30
2017-08-24T17:56:40.744Z,63.10
2017-08-24T17:58:42.134Z,63.40
2017-08-24T18:00:44.185Z,63.50
2017-08-24T18:02:45.335Z,63.50
2017-08-24T18:04:46.308Z,64.90
2017-08-24T18:06:47.252Z,64.90
2017-08-24T18:08:48.189Z,65.40
2017-08-24T18:10:49.128Z,65.00
2017-08-24T18:12:50.072Z,65.60
2017-08-24T18:14:51.038Z,67.00
2017-08-24T18:16:52.100Z,65.90
2017-08-24T18:18:53.106Z,67.90
2017-08-24T18:20:54.123Z,66.50
2017-08-24T18:22:55.265Z,67.40
2017-08-24T18:24:56.291Z,67.80
2017-08-24T18:26:57.220Z,67.90
2017-08-24T18:28:58.186Z,67.60
2017-08-24T18:30:59.204Z,67.70
2017-08-24T18:33:00.265Z,66.40
2017-08-24T18:35:01.358Z,67.10
2017-08-24T18:37:02.353Z,65.80
2017-08-24T18:39:03.396Z,66.30
2017-08-24T18:41:04.410Z,67.20
2017-08-24T18:43:05.629Z,66.40
2017-08-24T18:45:06.694Z,66.70
2017-08-24T18:47:07.804Z,67.00
2017-08-24T18:49:08.759Z,66.80
2017-08-24T18:51:10.909Z,66.50
2017-08-24T18:53:11.854Z,68.90
2017-08-24T18:55:12.788Z,68.00
2017-08-24T18:57:13.745Z,68.00
2017-08-24T18:59:14.687Z,69.30
2017-08-24T19:01:15.631Z,70.60
2017-08-24T19:03:16.580Z,70.20
2017-08-24T19:05:17.512Z,70.40
2017-08-24T19:07:18.455Z,70.70
2017-08-24T19:09:19.477Z,70.20
2017-08-24T19:11:20.505Z,70.00
2017-08-24T19:13:21.808Z,70.20
2017-08-24T19:15:22.774Z,70.40
2017-08-24T19:17:23.844Z,71.40
2017-08-24T19:19:24.976Z,72.70
2017-08-24T19:21:25.979Z,72.20
2017-08-24T19:23:27.060Z,72.90
2017-08-24T19:25:28.156Z,72.70
2017-08-24T19:27:29.224Z,72.40
2017-08-24T19:29:30.263Z,72.50
2017-08-24T19:31:31.311Z,73.30
2017-08-24T19:33:32.436Z,74.20
2017-08-24T19:35:33.381Z,74.60
2017-08-24T19:37:34.411Z,73.80
2017-08-24T19:39:35.480Z,74.20
2017-08-24T19:41:36.411Z,74.80
2017-08-24T19:43:37.368Z,74.70
2017-08-24T19:45:38.332Z,75.00
2017-08-24T19:47:39.419Z,74.90
2017-08-24T19:49:40.445Z,75.40
2017-08-24T19:51:41.524Z,76.00
2017-08-24T19:53:42.638Z,75.50
2017-08-24T19:55:43.576Z,75.50
2017-08-24T19:57:44.536Z,74.40
2017-08-24T19:59:45.496Z,74.20
2017-08-24T20:01:46.432Z,74.60
2017-08-24T20:03:47.453Z,75.30
2017-08-24T20:05:48.450Z,74.70
2017-08-24T20:07:49.492Z,74.80
2017-08-24T20:09:50.524Z,74.60
2017-08-24T20:11:51.543Z,74.60
2017-08-24T20:13:52.481Z,74.10
2017-08-24T20:15:53.417Z,74.50
2017-08-24T20:17:54.344Z,75.60
2017-08-24T20:19:55.305Z,74.90
2017-08-24T20:21:56.240Z,75.30
2017-08-24T20:23:57.169Z,75.40
2017-08-24T20:25:58.197Z,75.70
2017-08-24T20:27:59.144Z,75.10
2017-08-24T20:30:01.800Z,75.20
2017-08-24T20:32:02.826Z,75.50
2017-08-24T20:34:03.755Z,75.60
2017-08-24T20:36:04.707Z,75.70
2017-08-24T20:38:05.650Z,76.20
2017-08-24T20:40:06.711Z,75.40
2017-08-24T20:42:07.645Z,75.50
2017-08-24T20:44:08.600Z,74.70
2017-08-24T20:46:09.553Z,74.80
2017-08-24T20:48:10.583Z,75.00
2017-08-24T20:50:11.628Z,75.10
2017-08-24T20:52:12.577Z,75.80
2017-08-24T20:54:13.528Z,75.20
2017-08-24T20:56:14.484Z,75.00
2017-08-24T20:58:22.304Z,74.70
2017-08-24T21:00:23.249Z,75.50
2017-08-24T21:02:24.183Z,74.60
2017-08-24T21:04:25.112Z,74.70
2017-08-24T21:06:26.056Z,74.90
2017-08-24T21:08:26.980Z,74.90
2017-08-24T21:10:27.909Z,75.00
2017-08-24T21:12:28.853Z,74.60
2017-08-24T21:14:29.776Z,74.80
2017-08-24T21:16:30.708Z,74.10
2017-08-24T21:18:31.636Z,74.90
2017-08-24T21:20:32.576Z,74.40
2017-08-24T21:22:33.532Z,74.60
2017-08-24T21:24:34.465Z,74.80
2017-08-24T21:26:35.405Z,74.30
2017-08-24T21:28:36.337Z,74.50
2017-08-24T21:30:37.268Z,74.70
2017-08-24T21:32:38.200Z,74.40
2017-08-24T21:34:39.129Z,74.40
2017-08-24T21:36:40.056Z,74.60
2017-08-24T21:38:41.020Z,74.10
2017-08-24T21:40:41.944Z,74.60
2017-08-24T21:42:42.896Z,74.20
2017-08-24T21:44:43.832Z,74.80
2017-08-24T21:46:44.765Z,74.30
2017-08-24T21:48:45.708Z,74.60
2017-08-24T21:50:53.564Z,75.00
2017-08-24T21:52:54.504Z,74.40
2017-08-24T21:54:55.437Z,75.20
2017-08-24T21:56:56.369Z,75.40
2017-08-24T21:58:57.304Z,75.40
2017-08-24T22:00:58.230Z,75.30
2017-08-24T22:02:59.179Z,75.40
2017-08-24T22:05:00.116Z,75.40
2017-08-24T22:07:01.049Z,75.30
2017-08-24T22:09:02.001Z,75.50
2017-08-24T22:11:02.952Z,75.70
2017-08-24T22:13:03.871Z,76.00
2017-08-24T22:15:04.813Z,76.00
2017-08-24T22:17:05.764Z,76.00
2017-08-24T22:19:06.745Z,75.90
2017-08-24T22:21:07.684Z,75.90
2017-08-24T22:23:08.612Z,76.10
2017-08-24T22:25:09.548Z,75.80
2017-08-24T22:27:10.584Z,75.90
2017-08-24T22:29:11.512Z,75.80
2017-08-24T22:31:12.461Z,75.80
2017-08-24T22:33:20.391Z,75.70
2017-08-24T22:35:21.328Z,75.70
2017-08-24T22:37:22.249Z,75.70
2017-08-24T22:39:23.184Z,75.10
2017-08-24T22:41:24.128Z,75.20
2017-08-24T22:43:25.057Z,75.60
2017-08-24T22:45:26.008Z,75.50
2017-08-24T22:47:26.944Z,75.60
2017-08-24T22:49:27.869Z,75.40
2017-08-24T22:51:28.808Z,75.40
2017-08-24T22:53:35.737Z,75.30
2017-08-24T22:55:42.736Z,75.30
2017-08-24T22:57:49.792Z,75.30
2017-08-24T22:59:56.932Z,75.30
2017-08-24T23:02:03.944Z,76.70
2017-08-24T23:04:04.880Z,77.70
2017-08-24T23:06:05.953Z,77.70
2017-08-24T23:08:06.879Z,77.40
2017-08-24T23:10:07.817Z,77.20
2017-08-24T23:12:08.800Z,77.10
2017-08-24T23:14:09.736Z,77.10
2017-08-24T23:16:10.663Z,77.10
2017-08-24T23:18:11.607Z,77.00
2017-08-24T23:20:12.548Z,77.00
2017-08-24T23:22:13.484Z,76.60
2017-08-24T23:24:14.416Z,76.60
2017-08-24T23:26:15.356Z,75.40
2017-08-24T23:28:16.312Z,75.10
2017-08-24T23:30:17.254Z,74.90
2017-08-24T23:32:18.213Z,74.90
2017-08-24T23:34:19.148Z,75.70
2017-08-24T23:36:20.080Z,75.40
2017-08-24T23:38:21.108Z,75.50
2017-08-24T23:40:22.041Z,75.40
2017-08-24T23:42:22.972Z,74.80
2017-08-24T23:44:23.921Z,75.20
2017-08-24T23:46:24.863Z,75.30
2017-08-24T23:48:25.801Z,74.70
2017-08-24T23:50:26.736Z,75.30
2017-08-24T23:52:27.672Z,75.60
2017-08-24T23:54:28.602Z,75.30
2017-08-24T23:56:29.536Z,74.70
2017-08-24T23:58:30.481Z,75.40
